Time;durP1;ratioP1;P1;durP2;ratioP2;P2;SDS_P1;SDS_P2;PMS_P1;PMS_P2;Temp;Humidity;BMP_temperature;BMP_pressure;BME280_temperature;BME280_humidity;BME280_pressure;Samples;Min_cycle;Max_cycle;Signal;HPM_P1;HPM_P2
2021/06/26 00:00:08;;;;;;;6.10;5.20;;;;;;;26.13;57.16;100712.05;125173;1109;64319;-84
2021/06/26 00:04:05;;;;;;;;;;;;;;;;;;;;;
2021/06/26 00:07:12;;;;;;;5.60;5.00;;;;;;;26.20;57.30;100707.78;125016;1114;64191;-84
2021/06/26 00:11:00;;;;;;;6.30;5.40;;;;;;;26.23;57.34;100699.36;125016;1115;64514;-84
2021/06/26 00:14:01;;;;;;;6.30;5.40;;;;;;;26.23;57.27;100691.24;125043;1116;64340;-84
2021/06/26 00:17:10;;;;;;;6.90;5.80;;;;;;;26.25;57.05;100669.45;125015;1114;64722;-83
2021/06/26 00:20:49;;;;;;;;;;;;;;;;;;;;;
2021/06/26 00:23:55;;;;;;;5.90;5.30;;;;;;;26.22;57.08;100648.10;124956;1114;64345;-84
2021/06/26 00:27:34;;;;;;;;;;;;;;;;;;;;;
2021/06/26 00:30:41;;;;;;;;;;;;;;;;;;;;;
2021/06/26 00:33:47;;;;;;;6.05;5.45;;;;;;;26.14;56.82;100599.30;124538;1125;64207;-83
2021/06/26 00:37:24;;;;;;;;;;;;;;;;;;;;;
2021/06/26 00:40:34;;;;;;;7.10;5.40;;;;;;;26.08;56.98;100549.31;124653;1119;64163;-85
2021/06/26 00:43:31;;;;;;;;;;;;;;;;;;;;;
2021/06/26 00:47:46;;;;;;;6.20;5.30;;;;;;;26.12;57.25;100503.90;124986;1113;64192;-84
2021/06/26 00:50:40;;;;;;;6.30;5.10;;;;;;;26.14;57.01;100472.98;125021;1115;65325;-84
2021/06/26 00:54:20;;;;;;;;;;;;;;;;;;;;;
2021/06/26 00:57:35;;;;;;;7.10;5.40;;;;;;;26.16;57.05;100456.60;125012;1111;64214;-84
2021/06/26 01:01:04;;;;;;;6.30;5.20;;;;;;;26.16;57.04;100438.53;125136;1112;64307;-84
2021/06/26 01:03:50;;;;;;;;;;;;;;;;;;;;;
2021/06/26 01:07:11;;;;;;;7.45;5.40;;;;;;;26.13;57.08;100409.06;125421;1109;64259;-84
2021/06/26 01:10:29;;;;;;;;;;;;;;;;;;;;;
2021/06/26 01:13:43;;;;;;;8.05;5.70;;;;;;;26.09;56.87;100399.55;125366;1108;65195;-84
2021/06/26 01:16:58;;;;;;;7.80;5.60;;;;;;;26.07;56.85;100409.69;125189;1109;64267;-86
2021/06/26 01:20:15;;;;;;;6.37;5.47;;;;;;;26.05;56.85;100407.11;125347;1108;64267;-83
2021/06/26 01:23:32;;;;;;;;;;;;;;;;;;;;;
2021/06/26 01:26:30;;;;;;;;;;;;;;;;;;;;;
2021/06/26 01:29:42;;;;;;;5.83;4.87;;;;;;;26.07;57.27;100383.48;125363;1109;64364;-84
2021/06/26 01:32:42;;;;;;;;;;;;;;;;;;;;;
2021/06/26 01:35:48;;;;;;;7.75;5.10;;;;;;;26.11;57.28;100384.03;125671;1108;64323;-83
2021/06/26 01:39:03;;;;;;;6.20;5.30;;;;;;;26.14;57.06;100399.11;125318;1109;64192;-84
2021/06/26 01:42:13;;;;;;;6.60;4.90;;;;;;;26.13;57.04;100417.17;125394;1108;64488;-85
2021/06/26 01:45:34;;;;;;;6.70;5.20;;;;;;;26.13;56.77;100432.56;125639;1107;64323;-84
2021/06/26 01:48:48;;;;;;;6.53;5.13;;;;;;;26.12;56.87;100436.27;125891;1104;64185;-84
2021/06/26 01:52:24;;;;;;;6.40;5.20;;;;;;;26.10;57.00;100442.67;125718;1106;64230;-84
2021/06/26 01:56:01;;;;;;;;;;;;;;;;;;;;;
2021/06/26 01:59:14;;;;;;;6.50;5.10;;;;;;;26.06;57.06;100421.50;125844;1106;64368;-85
2021/06/26 02:02:22;;;;;;;6.40;4.83;;;;;;;26.04;57.14;100427.08;125756;1105;64647;-84
2021/06/26 02:06:00;;;;;;;;;;;;;;;;;;;;;
2021/06/26 02:09:24;;;;;;;5.87;4.80;;;;;;;26.04;57.27;100443.30;125824;1106;64353;-83
2021/06/26 02:12:45;;;;;;;7.17;4.87;;;;;;;26.06;57.18;100495.38;125733;1106;64260;-84
2021/06/26 02:16:14;;;;;;;6.30;5.00;;;;;;;26.10;57.10;100602.27;125213;1109;64213;-84
2021/06/26 02:19:42;;;;;;;;;;;;;;;;;;;;;
2021/06/26 02:23:02;;;;;;;;;;;;;;;;;;;;;
2021/06/26 02:26:29;;;;;;;;;;;;;;;;;;;;;
2021/06/26 02:29:52;;;;;;;6.80;5.10;;;;;;;26.13;57.17;100649.83;125306;1108;64329;-83
2021/06/26 02:33:38;;;;;;;6.10;4.90;;;;;;;26.11;57.10;100651.84;125309;1109;64323;-84
2021/06/26 02:36:50;;;;;;;;;;;;;;;;;;;;;
2021/06/26 02:40:35;;;;;;;6.40;5.30;;;;;;;26.08;57.04;100673.75;125277;1109;64359;-84
2021/06/26 02:43:44;;;;;;;7.05;5.30;;;;;;;26.05;57.12;100671.34;125659;1106;64176;-84
2021/06/26 02:47:21;;;;;;;;;;;;;;;;;;;;;
2021/06/26 02:51:02;;;;;;;6.80;4.60;;;;;;;26.04;57.24;100665.09;125355;1109;66174;-84
2021/06/26 02:54:19;;;;;;;5.80;5.00;;;;;;;26.07;57.42;100653.13;125633;1106;64358;-84
2021/06/26 02:57:21;;;;;;;;;;;;;;;;;;;;;
2021/06/26 03:00:44;;;;;;;6.23;4.80;;;;;;;26.11;57.24;100638.31;125352;1109;62981;-84
2021/06/26 03:04:27;;;;;;;5.55;4.40;;;;;;;26.11;57.13;100630.20;125110;1112;64435;-84
2021/06/26 03:07:47;;;;;;;5.87;4.43;;;;;;;26.12;57.23;100631.03;125272;1112;64302;-84
2021/06/26 03:10:50;;;;;;;5.70;4.90;;;;;;;26.09;57.16;100630.35;125395;1111;64168;-83
2021/06/26 03:13:57;;;;;;;5.85;4.55;;;;;;;26.09;57.11;100637.59;125384;1112;64336;-85
2021/06/26 03:17:45;;;;;;;5.50;4.50;;;;;;;26.07;56.96;100651.27;125234;1112;64195;-84
2021/06/26 03:21:01;;;;;;;;;;;;;;;;;;;;;
2021/06/26 03:24:01;;;;;;;;;;;;;;;;;;;;;
2021/06/26 03:27:32;;;;;;;5.05;4.45;;;;;;;26.04;57.21;100702.09;125038;1113;64218;-84
2021/06/26 03:31:38;;;;;;;6.20;4.20;;;;;;;26.05;57.27;100711.92;125062;1112;64083;-84
2021/06/26 03:34:42;;;;;;;5.70;4.45;;;;;;;26.08;57.32;100714.33;125098;1112;63998;-84
2021/06/26 03:38:14;;;;;;;5.30;4.33;;;;;;;26.09;57.34;100711.50;125259;1109;64378;-84
2021/06/26 03:41:17;;;;;;;;;;;;;;;;;;;;;
2021/06/26 03:44:36;;;;;;;7.25;4.70;;;;;;;26.13;57.29;100700.38;125560;1108;64224;-84
2021/06/26 03:47:28;;;;;;;;;;;;;;;26.12;57.08;100699.51;125341;1109;65370;-83
2021/06/26 03:51:14;;;;;;;;;;;;;;;;;;;;;
2021/06/26 03:54:17;;;;;;;5.50;4.30;;;;;;;26.10;57.12;100724.01;125169;1111;64333;-84
2021/06/26 03:57:31;;;;;;;5.55;4.40;;;;;;;26.09;57.11;100710.63;125078;1114;64187;-84
2021/06/26 04:00:59;;;;;;;;;;;;;;;;;;;;;
2021/06/26 04:04:14;;;;;;;6.30;4.35;;;;;;;26.05;57.07;100707.35;125092;1111;64555;-85
2021/06/26 04:08:09;;;;;;;5.95;4.30;;;;;;;26.03;57.12;100693.13;125045;1114;64189;-84
2021/06/26 04:11:20;;;;;;;4.70;3.70;;;;;;;26.04;57.39;100711.08;125066;1113;64080;-84
2021/06/26 04:14:29;;;;;;;5.10;4.00;;;;;;;26.08;57.32;100695.39;125068;1111;64179;-84
2021/06/26 04:17:54;;;;;;;;;;;;;;;;;;;;;
2021/06/26 04:20:54;;;;;;;5.90;4.10;;;;;;;26.11;57.26;100689.71;124917;1115;64212;-85
2021/06/26 04:24:20;;;;;;;;;;;;;;;;;;;;;
2021/06/26 04:27:22;;;;;;;5.25;3.95;;;;;;;26.14;57.16;100688.57;124951;1116;64298;-84
2021/06/26 04:30:33;;;;;;;;;;;;;;;;;;;;;
2021/06/26 04:34:09;;;;;;;;;;;;;;;;;;;;;
2021/06/26 04:38:05;;;;;;;6.75;4.15;;;;;;;26.09;57.05;100684.45;125000;1114;64339;-83
2021/06/26 04:40:56;;;;;;;5.70;4.00;;;;;;;26.07;57.04;100659.38;124920;1115;64192;-84
2021/06/26 04:48:00;;;;;;;;;;;;;;;;;;;;;
2021/06/26 04:51:09;;;;;;;5.10;3.60;;;;;;;26.03;57.00;100667.95;124730;1119;64286;-84
2021/06/26 04:54:36;;;;;;;6.10;3.90;;;;;;;26.04;57.13;100662.39;124754;1119;64012;-83
2021/06/26 04:57:23;;;;;;;;;;;;;;;26.06;57.16;100665.78;124719;1119;64450;-84
2021/06/26 05:01:00;;;;;;;;;;;;;;;;;;;;;
2021/06/26 05:04:34;;;;;;;8.70;4.50;;;;;;;26.10;57.16;100672.61;124604;1120;64221;-83
2021/06/26 05:07:45;;;;;;;5.45;4.00;;;;;;;26.12;57.06;100671.62;124572;1124;64215;-83
2021/06/26 05:11:11;;;;;;;5.67;3.97;;;;;;;26.12;57.39;100677.03;124316;1122;64448;-85
2021/06/26 05:14:27;;;;;;;5.95;4.35;;;;;;;26.10;56.95;100688.00;124540;1125;64206;-84
2021/06/26 05:17:30;;;;;;;;;;;;;;;;;;;;;
2021/06/26 05:20:18;;;;;;;6.05;4.15;;;;;;;26.07;56.93;100681.02;124735;1117;64437;-84
2021/06/26 05:23:16;;;;;;;6.10;4.10;;;;;;;26.05;56.96;100674.89;124762;1119;64208;-84
2021/06/26 05:26:16;;;;;;;;;;;;;;;;;;;;;
2021/06/26 05:29:39;;;;;;;;;;;;;;;;;;;;;
2021/06/26 05:32:58;;;;;;;6.30;3.90;;;;;;;26.02;56.82;100680.57;125720;1109;64501;-83
2021/06/26 05:36:30;;;;;;;4.55;3.45;;;;;;;26.02;57.07;100690.55;125697;1109;64510;-84
2021/06/26 05:39:47;;;;;;;7.40;3.70;;;;;;;26.04;57.23;100692.14;125691;1109;64187;-84
2021/06/26 05:42:59;;;;;;;5.73;3.93;;;;;;;26.08;57.22;100698.09;125817;1106;64480;-84
2021/06/26 05:46:11;;;;;;;6.23;3.97;;;;;;;26.09;57.16;100697.98;125902;1101;65637;-84
2021/06/26 05:49:42;;;;;;;8.40;4.00;;;;;;;26.10;57.12;100696.11;125870;1105;64172;-83
2021/06/26 05:53:18;;;;;;;5.60;3.80;;;;;;;26.10;57.36;100696.95;125830;1105;64141;-84
2021/06/26 05:56:14;;;;;;;;;;;;;;;;;;;;;
2021/06/26 05:59:58;;;;;;;;;;;;;;;;;;;;;
2021/06/26 06:03:46;;;;;;;;;;;;;;;;;;;;;
2021/06/26 06:10:49;;;;;;;7.27;3.97;;;;;;;26.01;56.99;100669.90;125698;1109;64137;-84
2021/06/26 06:14:11;;;;;;;6.85;4.00;;;;;;;26.00;57.04;100676.30;125633;1108;64132;-84
2021/06/26 06:17:59;;;;;;;6.30;3.60;;;;;;;25.99;57.11;100674.59;125316;1112;64706;-84
2021/06/26 06:21:11;;;;;;;6.85;3.80;;;;;;;26.00;57.14;100679.01;125067;1112;64244;-84
2021/06/26 06:24:50;;;;;;;;;;;;;;;;;;;;;
2021/06/26 06:28:06;;;;;;;5.90;3.80;;;;;;;26.05;57.27;100661.37;125073;1111;64153;-84
2021/06/26 06:31:16;;;;;;;5.50;3.40;;;;;;;26.08;57.20;100650.28;125072;1113;64332;-85
2021/06/26 06:34:32;;;;;;;7.70;4.10;;;;;;;26.10;56.99;100633.89;125012;1114;64656;-84
2021/06/26 06:37:56;;;;;;;7.15;3.90;;;;;;;26.10;56.93;100629.33;124901;1119;64150;-84
2021/06/26 06:41:20;;;;;;;7.40;4.10;;;;;;;26.10;56.94;100628.48;124755;1118;64348;-84
2021/06/26 06:44:29;;;;;;;4.90;3.90;;;;;;;26.09;56.90;100637.59;124812;1119;64162;-85
2021/06/26 06:47:21;;;;;;;5.90;3.40;;;;;;;26.08;56.84;100634.05;124726;1119;64192;-84
2021/06/26 06:50:28;;;;;;;6.70;3.90;;;;;;;26.07;56.88;100626.92;124777;1119;64147;-84
2021/06/26 06:54:04;;;;;;;;;;;;;;;;;;;;;
2021/06/26 06:57:26;;;;;;;;;;;;;;;;;;;;;
2021/06/26 07:00:55;;;;;;;;;;;;;;;;;;;;;
2021/06/26 07:04:32;;;;;;;6.50;3.80;;;;;;;26.00;56.93;100606.85;125152;1111;64269;-80
2021/06/26 07:07:52;;;;;;;;;;;;;;;;;;;;;
2021/06/26 07:11:26;;;;;;;6.00;3.67;;;;;;;26.05;57.55;100607.27;125802;1103;64354;-84
2021/06/26 07:14:42;;;;;;;;;;;;;;;;;;;;;
2021/06/26 07:17:55;;;;;;;6.75;3.70;;;;;;;26.13;57.18;100614.66;125818;1105;61757;-84
2021/06/26 07:21:05;;;;;;;;;;;;;;;;;;;;;
2021/06/26 07:24:20;;;;;;;7.25;3.70;;;;;;;26.16;56.94;100622.50;125775;1106;64684;-84
2021/06/26 07:27:28;;;;;;;;;;;;;;;;;;;;;
2021/06/26 07:30:25;;;;;;;5.40;3.57;;;;;;;26.15;56.66;100617.20;125748;1106;64166;-83
2021/06/26 07:33:24;;;;;;;;;;;;;;;;;;;;;
2021/06/26 07:36:21;;;;;;;5.55;3.85;;;;;;;26.14;56.87;100604.70;125876;1106;64204;-84
2021/06/26 07:39:50;;;;;;;6.88;3.90;;;;;;;26.12;56.67;100598.58;125817;1105;64169;-84
2021/06/26 07:42:45;;;;;;;7.10;3.70;;;;;;;26.09;56.79;100597.89;125844;1105;64198;-84
2021/06/26 07:46:06;;;;;;;;;;;;;;;;;;;;;
2021/06/26 07:53:05;;;;;;;;;;;;;;;;;;;;;
2021/06/26 07:56:17;;;;;;;;;;;;;;;;;;;;;
2021/06/26 07:59:16;;;;;;;;;;;;;;;;;;;;;
2021/06/26 08:03:06;;;;;;;6.55;3.80;;;;;;;26.25;56.96;100572.04;125398;1109;64396;-84
2021/06/26 08:06:01;;;;;;;6.40;3.60;;;;;;;26.26;56.78;100571.88;125342;1109;64241;-85
2021/06/26 08:09:27;;;;;;;6.10;3.80;;;;;;;26.28;56.69;100568.19;125360;1111;64323;-84
2021/06/26 08:12:57;;;;;;;;;;;;;;;;;;;;;
2021/06/26 08:15:51;;;;;;;8.20;4.00;;;;;;;26.26;56.47;100566.47;125025;1115;64329;-86
2021/06/26 08:19:16;;;;;;;;;;;;;;;;;;;;;
2021/06/26 08:22:34;;;;;;;5.80;3.60;;;;;;;26.23;56.56;100574.06;125069;1116;64002;-85
2021/06/26 08:25:53;;;;;;;;;;;;;;;;;;;;;
2021/06/26 08:29:06;;;;;;;5.90;3.60;;;;;;;26.19;56.69;100569.91;124811;1116;64188;-84
2021/06/26 08:32:43;;;;;;;;;;;;;;;;;;;;;
2021/06/26 08:36:05;;;;;;;4.95;3.25;;;;;;;26.16;56.63;100565.69;125116;1111;64208;-84
2021/06/26 08:39:15;;;;;;;;;;;;;;;;;;;;;
2021/06/26 08:43:27;;;;;;;5.30;3.40;;;;;;;26.22;56.99;100577.75;125177;1112;65918;-84
2021/06/26 08:49:51;;;;;;;4.60;3.40;;;;;;;26.29;56.66;100581.56;125070;1111;64157;-83
2021/06/26 08:52:35;;;;;;;5.80;3.60;;;;;;;26.30;56.57;100577.02;125664;1114;61842;-82
2021/06/26 08:55:22;;;;;;;6.50;3.60;;;;;;;26.31;56.56;100573.28;125080;1114;64415;-85
2021/06/26 08:58:21;;;;;;;4.60;3.40;;;;;;;26.31;56.55;100589.52;125056;1114;64292;-84
2021/06/26 09:02:09;;;;;;;;;;;;;;;;;;;;;
2021/06/26 09:05:15;;;;;;;;;;;;;;;;;;;;;
2021/06/26 09:08:54;;;;;;;;;;;;;;;;;;;;;
2021/06/26 09:12:32;;;;;;;;;;;;;;;;;;;;;
2021/06/26 09:16:11;;;;;;;6.45;3.50;;;;;;;26.22;56.57;100583.17;125014;1115;64396;-84
2021/06/26 09:19:36;;;;;;;6.00;3.50;;;;;;;26.20;56.48;100582.45;125027;1114;64374;-84
2021/06/26 09:22:48;;;;;;;6.75;3.40;;;;;;;26.20;56.58;100582.45;125023;1111;64145;-84
2021/06/26 09:26:26;;;;;;;5.85;3.20;;;;;;;26.22;56.67;100588.58;125052;1112;64355;-84
2021/06/26 09:30:06;;;;;;;5.10;3.40;;;;;;;26.26;56.90;100598.10;125021;1115;64176;-84
2021/06/26 09:33:44;;;;;;;;;;;;;;;;;;;;;
2021/06/26 09:40:20;;;;;;;5.50;3.40;;;;;;;26.34;56.64;100570.30;124785;1118;64275;-84
2021/06/26 09:43:52;;;;;;;6.10;3.85;;;;;;;26.34;56.45;100565.73;124968;1116;64191;-84
2021/06/26 09:50:45;;;;;;;7.05;3.70;;;;;;;26.33;56.39;100560.47;124675;1120;64390;-84
2021/06/26 09:54:09;;;;;;;7.20;3.60;;;;;;;26.30;56.37;100548.09;124708;1120;64333;-84
2021/06/26 09:57:26;;;;;;;5.70;3.50;;;;;;;26.29;56.39;100548.25;124755;1119;64473;-84
2021/06/26 10:00:16;;;;;;;;;;;;;;;;;;;;;
2021/06/26 10:03:08;;;;;;;;;;;;;;;;;;;;;
2021/06/26 10:06:20;;;;;;;4.60;3.15;;;;;;;26.22;56.45;100535.31;124998;1115;64340;-84
2021/06/26 10:09:17;;;;;;;;;;;;;;;;;;;;;
2021/06/26 10:12:55;;;;;;;;;;;;;;;;;;;;;
2021/06/26 10:15:59;;;;;;;5.55;3.40;;;;;;;26.25;56.60;100526.88;125111;1112;64147;-84
2021/06/26 10:19:15;;;;;;;6.13;3.70;;;;;;;26.29;56.56;100522.03;125352;1109;64269;-84
2021/06/26 10:22:27;;;;;;;4.53;3.40;;;;;;;26.32;56.62;100520.88;125397;1109;64194;-84
2021/06/26 10:26:10;;;;;;;5.50;3.60;;;;;;;26.33;56.48;100512.60;125386;1108;64514;-85
2021/06/26 10:29:22;;;;;;;4.23;3.13;;;;;;;26.33;56.42;100506.35;125864;1105;64183;-83
2021/06/26 10:33:13;;;;;;;5.20;3.40;;;;;;;26.32;56.40;100504.64;125307;1109;64336;-84
2021/06/26 10:36:14;;;;;;;5.20;3.50;;;;;;;26.30;56.37;100504.80;125349;1108;64196;-84
2021/06/26 10:39:59;;;;;;;6.60;3.40;;;;;;;26.29;56.30;100504.95;125377;1108;64263;-84
2021/06/26 10:42:47;;;;;;;5.67;3.90;;;;;;;26.25;56.32;100497.12;125329;1111;64187;-84
2021/06/26 10:46:24;;;;;;;5.90;3.55;;;;;;;26.23;56.41;100493.73;125285;1109;64335;-84
2021/06/26 10:49:39;;;;;;;4.80;3.60;;;;;;;26.21;56.57;100501.13;125210;1109;64160;-82
2021/06/26 10:52:53;;;;;;;4.50;3.40;;;;;;;26.19;56.38;100492.33;125231;1110;64246;-83
2021/06/26 10:56:21;;;;;;;5.50;3.40;;;;;;;26.20;56.58;100485.05;124948;1111;64231;-83
2021/06/26 10:59:27;;;;;;;5.30;3.20;;;;;;;26.21;56.73;100487.60;124917;1112;64307;-83
2021/06/26 11:02:40;;;;;;;7.25;3.55;;;;;;;26.25;56.65;100493.58;124967;1109;64350;-83
2021/06/26 11:05:44;;;;;;;5.30;3.50;;;;;;;26.30;56.66;100490.43;125183;1109;64403;-82
2021/06/26 11:08:40;;;;;;;5.95;3.80;;;;;;;26.32;56.63;100488.41;125261;1109;65399;-81
2021/06/26 11:11:07;;;;;;;4.20;3.30;;;;;;;26.35;56.48;100474.56;125214;1110;64288;-83
2021/06/26 11:14:05;;;;;;;5.75;3.40;;;;;;;26.35;56.27;100478.14;125352;1112;64296;-85
2021/06/26 11:17:12;;;;;;;5.60;4.00;;;;;;;26.35;56.42;100479.98;125474;1109;64310;-84
2021/06/26 11:20:31;;;;;;;5.80;3.80;;;;;;;26.34;56.28;100483.70;125254;1112;64205;-84
2021/06/26 11:23:46;;;;;;;7.10;3.85;;;;;;;26.31;56.35;100473.16;125178;1109;64362;-84
2021/06/26 11:27:13;;;;;;;;;;;;;;;;;;;;;
2021/06/26 11:34:07;;;;;;;6.57;3.90;;;;;;;26.24;56.30;100471.09;125811;1106;64182;-84
2021/06/26 11:37:11;;;;;;;;;;;;;;;;;;;;;
2021/06/26 11:40:48;;;;;;;;;;;;;;;;;;;;;
2021/06/26 11:43:33;;;;;;;5.30;3.83;;;;;;;26.23;56.56;100469.38;125830;1103;64176;-85
2021/06/26 11:46:49;;;;;;;5.50;3.70;;;;;;;26.26;56.70;100458.24;125858;1103;64294;-83
2021/06/26 11:49:33;;;;;;;5.77;3.50;;;;;;;26.32;56.80;100456.77;126292;1103;64282;-85
2021/06/26 11:52:22;;;;;;;;;;;;;;;;;;;;;
2021/06/26 11:55:38;;;;;;;5.77;3.90;;;;;;;26.37;56.49;100449.05;126333;1103;64309;-84
2021/06/26 11:58:34;;;;;;;;;;;;;;;;;;;;;
2021/06/26 12:01:32;;;;;;;6.10;3.60;;;;;;;26.37;56.33;100446.34;127273;1096;64544;-84
2021/06/26 12:04:58;;;;;;;5.40;3.80;;;;;;;26.36;56.39;100447.38;127289;1096;64402;-84
2021/06/26 12:08:20;;;;;;;;;;;;;;;;;;;;;
2021/06/26 12:11:35;;;;;;;7.23;3.90;;;;;;;26.32;56.55;100439.70;127138;1096;64154;-84
2021/06/26 12:15:03;;;;;;;5.43;3.77;;;;;;;26.30;56.50;100433.61;127262;1093;64639;-84
2021/06/26 12:18:09;;;;;;;;;;;;;;;26.27;56.41;100432.05;127314;1096;63971;-84
2021/06/26 12:21:27;;;;;;;7.10;4.15;;;;;;;26.24;56.56;100440.45;127279;1095;64146;-83
2021/06/26 12:24:38;;;;;;;;;;;;;;;;;;;;;
2021/06/26 12:28:07;;;;;;;6.90;3.95;;;;;;;26.22;56.49;100432.50;127220;1096;64298;-84
2021/06/26 12:31:05;;;;;;;6.37;3.53;;;;;;;26.24;56.66;100427.80;127151;1096;64152;-84
2021/06/26 12:34:22;;;;;;;5.17;3.80;;;;;;;26.27;56.75;100423.94;126359;1100;64171;-84
2021/06/26 12:37:04;;;;;;;5.70;3.60;;;;;;;26.33;56.85;100425.17;126333;1100;64167;-84
2021/06/26 12:40:39;;;;;;;5.35;3.95;;;;;;;26.36;56.73;100424.86;126251;1100;64256;-84
2021/06/26 12:43:51;;;;;;;5.63;3.80;;;;;;;26.37;56.51;100427.41;126322;1103;64275;-85
2021/06/26 12:47:08;;;;;;;6.20;4.00;;;;;;;26.39;56.51;100424.57;126336;1103;64163;-84
2021/06/26 12:50:44;;;;;;;7.07;3.93;;;;;;;26.37;56.58;100421.99;125836;1103;64613;-85
2021/06/26 12:54:10;;;;;;;;;;;;;;;;;;;;;
2021/06/26 12:57:49;;;;;;;6.25;4.00;;;;;;;26.34;56.38;100419.60;125705;1109;64186;-84
2021/06/26 13:00:53;;;;;;;5.47;3.83;;;;;;;26.33;56.44;100419.77;125564;1109;64179;-84
2021/06/26 13:04:04;;;;;;;5.65;3.90;;;;;;;26.32;56.55;100420.76;125701;1109;64211;-84
2021/06/26 13:07:50;;;;;;;;;;;;;;;;;;;;;
2021/06/26 13:11:20;;;;;;;5.90;3.75;;;;;;;26.31;56.47;100410.93;125497;1108;64188;-84
2021/06/26 13:14:40;;;;;;;;;;;;;;;;;;;;;
2021/06/26 13:17:55;;;;;;;5.25;3.75;;;;;;;26.37;56.70;100402.21;125368;1109;64182;-83
2021/06/26 13:20:54;;;;;;;;;;;;;;;;;;;;;
2021/06/26 13:24:22;;;;;;;;;;;;;;;;;;;;;
2021/06/26 13:27:51;;;;;;;;;;;;;;;;;;;;;
2021/06/26 13:31:18;;;;;;;;;;;;;;;;;;;;;
2021/06/26 13:34:51;;;;;;;;;;;;;;;;;;;;;
2021/06/26 13:38:27;;;;;;;5.17;3.67;;;;;;;26.45;56.44;100375.22;125357;1109;64057;-84
2021/06/26 13:41:19;;;;;;;;;;;;;;;;;;;;;
2021/06/26 13:44:26;;;;;;;5.60;3.57;;;;;;;26.42;56.31;100359.30;125554;1106;64166;-85
2021/06/26 13:47:56;;;;;;;5.80;3.80;;;;;;;26.40;56.37;100354.05;125749;1104;64345;-84
2021/06/26 13:51:01;;;;;;;;;;;;;;;;;;;;;
2021/06/26 13:54:14;;;;;;;6.30;4.00;;;;;;;26.38;56.43;100356.05;125407;1109;64368;-85
2021/06/26 13:57:31;;;;;;;;;;;;;;;;;;;;;
2021/06/26 14:00:45;;;;;;;5.95;4.00;;;;;;;26.43;56.67;100342.91;125111;1112;64304;-83
2021/06/26 14:04:03;;;;;;;6.20;3.90;;;;;;;26.48;56.58;100355.95;125038;1114;64117;-84
2021/06/26 14:07:19;;;;;;;;;;;;;;;;;;;;;
2021/06/26 14:10:34;;;;;;;5.20;3.80;;;;;;;26.54;56.70;100357.21;124866;1119;64213;-84
2021/06/26 14:14:12;;;;;;;;;;;;;;;;;;;;;
2021/06/26 14:17:03;;;;;;;;;;;;;;;;;;;;;
2021/06/26 14:20:34;;;;;;;6.15;4.20;;;;;;;26.52;56.61;100354.66;125238;1112;64108;-84
2021/06/26 14:23:34;;;;;;;;;;;;;;;;;;;;;
2021/06/26 14:26:18;;;;;;;6.07;3.97;;;;;;;26.50;56.38;100353.95;125074;1111;64483;-84
2021/06/26 14:29:14;;;;;;;7.50;4.25;;;;;;;26.50;56.48;100358.53;125375;1112;64403;-84
2021/06/26 14:35:41;;;;;;;4.90;3.60;;;;;;;26.48;56.32;100355.11;125692;1105;64137;-84
2021/06/26 14:39:01;;;;;;;;;;;;;;;;;;;;;
2021/06/26 14:42:22;;;;;;;5.53;3.75;;;;;;;26.53;56.61;100352.80;125802;1105;64173;-83
2021/06/26 14:45:19;;;;;;;;;;;;;;;;;;;;;
2021/06/26 14:48:47;;;;;;;5.57;3.80;;;;;;;26.60;56.57;100346.60;126286;1100;64186;-84
2021/06/26 14:51:58;;;;;;;5.53;3.70;;;;;;;26.63;56.51;100345.44;126229;1101;64317;-83
2021/06/26 14:54:31;;;;;;;6.00;3.73;;;;;;;26.63;56.41;100341.87;126153;1103;64202;-83
2021/06/26 14:57:18;;;;;;;;;;;;;;;;;;;;;
2021/06/26 14:59:56;;;;;;;6.83;4.10;;;;;;;26.62;56.34;100332.91;126183;1100;64208;-83
2021/06/26 15:03:16;;;;;;;;;;;;;;;;;;;;;
2021/06/26 15:06:05;;;;;;;;;;;;;;;;;;;;;
2021/06/26 15:08:53;;;;;;;;;;;;;;;;;;;;;
2021/06/26 15:11:32;;;;;;;7.58;4.20;;;;;;;26.59;56.31;100327.81;126238;1100;64645;-82
2021/06/26 15:14:30;;;;;;;5.70;3.77;;;;;;;26.57;56.25;100319.83;126169;1099;64169;-83
2021/06/26 15:17:16;;;;;;;;;;;;;;;;;;;;;
2021/06/26 15:19:51;;;;;;;5.30;3.60;;;;;;;26.57;56.33;100319.83;126228;1100;64170;-84
2021/06/26 15:22:56;;;;;;;;;;;;;;;;;;;;;
2021/06/26 15:25:48;;;;;;;5.50;3.73;;;;;;;26.62;56.53;100313.95;127172;1099;64346;-83
2021/06/26 15:28:22;;;;;;;6.07;3.80;;;;;;;26.66;56.69;100323.45;126970;1096;64498;-84
2021/06/26 15:31:10;;;;;;;5.50;3.83;;;;;;;26.68;56.57;100323.30;127103;1095;64195;-84
2021/06/26 15:34:17;;;;;;;5.80;3.80;;;;;;;26.69;56.24;100328.55;127114;1096;64308;-83
2021/06/26 15:37:15;;;;;;;6.80;4.07;;;;;;;26.70;56.31;100315.88;127164;1095;64198;-83
2021/06/26 15:40:03;;;;;;;6.00;3.77;;;;;;;26.70;56.30;100318.59;127335;1096;65396;-84
2021/06/26 15:42:39;;;;;;;5.63;4.00;;;;;;;26.69;56.37;100314.17;127287;1096;64070;-85
2021/06/26 15:45:48;;;;;;;7.20;4.00;;;;;;;26.67;56.49;100317.05;127294;1095;64287;-84
2021/06/26 15:48:35;;;;;;;5.43;3.80;;;;;;;26.66;56.36;100326.17;127311;1096;64114;-84
2021/06/26 15:51:36;;;;;;;5.67;3.87;;;;;;;26.64;56.33;100324.63;127270;1096;64183;-84
2021/06/26 15:55:03;;;;;;;;;;;;;;;;;;;;;
2021/06/26 15:58:25;;;;;;;5.68;3.83;;;;;;;26.59;56.07;100319.70;127278;1096;64121;-84
2021/06/26 16:01:29;;;;;;;5.60;4.10;;;;;;;26.56;56.36;100323.56;127279;1096;64502;-85
2021/06/26 16:04:50;;;;;;;5.93;3.63;;;;;;;26.56;56.34;100323.56;127304;1095;64125;-85
2021/06/26 16:07:48;;;;;;;;;;;;;;;;;;;;;
2021/06/26 16:10:52;;;;;;;7.23;4.10;;;;;;;26.59;56.53;100323.24;127154;1098;64381;-84
2021/06/26 16:14:08;;;;;;;5.23;4.03;;;;;;;26.62;56.41;100326.63;126935;1095;64188;-84
2021/06/26 16:17:01;;;;;;;4.50;3.60;;;;;;;26.65;56.76;100326.33;126944;1095;64358;-81
2021/06/26 16:19:35;;;;;;;7.10;3.77;;;;;;;26.65;56.48;100327.17;126876;1096;64141;-83
2021/06/26 16:22:21;;;;;;;5.00;3.80;;;;;;;26.65;56.40;100327.17;126881;1096;64128;-84
2021/06/26 16:25:09;;;;;;;6.30;4.00;;;;;;;26.65;56.38;100337.16;126911;1098;64134;-83
2021/06/26 16:28:24;;;;;;;5.40;3.70;;;;;;;26.62;56.34;100343.73;126983;1096;64003;-84
2021/06/26 16:30:50;;;;;;;7.07;4.00;;;;;;;26.59;56.33;100342.19;126983;1098;64128;-84
2021/06/26 16:33:46;;;;;;;5.20;3.70;;;;;;;26.58;56.17;100339.64;126299;1100;64258;-85
2021/06/26 16:36:46;;;;;;;;;;;;;;;;;;;;;
2021/06/26 16:39:46;;;;;;;;;;;;;;;;;;;;;
2021/06/26 16:43:06;;;;;;;6.57;4.17;;;;;;;26.51;56.41;100325.02;125839;1104;64227;-84
2021/06/26 16:46:01;;;;;;;5.40;3.60;;;;;;;26.48;56.43;100318.06;125719;1106;64253;-84
2021/06/26 16:49:01;;;;;;;5.30;3.80;;;;;;;26.49;56.61;100327.05;125841;1105;64150;-85
2021/06/26 16:52:11;;;;;;;;;;;;;;;;;;;;;
2021/06/26 16:55:36;;;;;;;5.60;3.85;;;;;;;26.54;56.63;100301.20;126066;1101;64311;-84
2021/06/26 16:58:29;;;;;;;4.73;3.60;;;;;;;26.56;56.59;100291.08;126565;1098;64327;-83
2021/06/26 17:01:57;;;;;;;5.50;3.90;;;;;;;26.58;56.43;100299.88;127079;1098;64166;-85
2021/06/26 17:04:54;;;;;;;5.73;3.87;;;;;;;26.57;56.48;100292.76;126883;1098;64163;-82
2021/06/26 17:07:49;;;;;;;5.03;3.93;;;;;;;26.56;56.45;100291.08;126899;1098;64160;-84
2021/06/26 17:10:41;;;;;;;5.40;4.10;;;;;;;26.55;56.53;100285.80;126975;1096;64176;-83
2021/06/26 17:13:24;;;;;;;5.93;3.70;;;;;;;26.53;56.32;100285.13;127445;1093;64523;-82
2021/06/26 17:15:56;;;;;;;5.23;3.80;;;;;;;26.52;56.49;100292.41;127154;1093;64160;-84
2021/06/26 17:19:01;;;;;;;5.73;3.87;;;;;;;26.50;56.30;100293.58;127281;1093;64252;-85
2021/06/26 17:22:28;;;;;;;;;;;;;;;;;;;;;
2021/06/26 17:25:47;;;;;;;;;;;;;;;;;;;;;
2021/06/26 17:28:49;;;;;;;4.67;3.70;;;;;;;26.44;56.49;100303.15;127761;1087;64240;-84
2021/06/26 17:32:08;;;;;;;4.50;3.33;;;;;;;26.45;56.71;100304.85;127922;1087;64140;-84
2021/06/26 17:35:11;;;;;;;5.27;3.70;;;;;;;26.47;56.60;100310.97;127750;1090;64114;-85
2021/06/26 17:38:30;;;;;;;5.43;3.70;;;;;;;26.51;56.56;100309.65;127712;1090;64109;-84
2021/06/26 17:41:36;;;;;;;6.00;3.70;;;;;;;26.53;56.72;100299.50;127393;1093;64154;-85
2021/06/26 17:44:26;;;;;;;5.07;3.57;;;;;;;26.54;56.67;100312.03;127412;1093;64206;-83
2021/06/26 17:47:29;;;;;;;4.80;3.70;;;;;;;26.54;56.46;100322.86;127348;1093;64282;-84
2021/06/26 17:50:20;;;;;;;5.13;3.60;;;;;;;26.53;56.41;100331.98;127458;1093;64631;-85
2021/06/26 17:53:38;;;;;;;4.70;3.63;;;;;;;26.52;56.36;100324.89;127734;1093;64268;-84
2021/06/26 17:56:59;;;;;;;;;;;;;;;;;;;;;
2021/06/26 18:00:11;;;;;;;;;;;;;;;;;;;;;
2021/06/26 18:03:26;;;;;;;5.87;4.07;;;;;;;26.44;56.42;100324.80;127643;1093;64231;-83
2021/06/26 18:06:40;;;;;;;;;;;;;;;;;;;;;
2021/06/26 18:10:07;;;;;;;;;;;;;;;;;;;;;
2021/06/26 18:13:26;;;;;;;6.03;3.80;;;;;;;26.41;56.61;100350.31;127032;1096;64310;-84
2021/06/26 18:19:32;;;;;;;5.43;3.37;;;;;;;26.48;56.47;100338.88;126301;1100;64459;-84